sensor_id;sensor_type;location;lat;lon;timestamp;temperature;humidity
27747;DHT22;15138;51.012;4.692;2024-01-07T00:00:07;4.60;1.00
27747;DHT22;15138;51.012;4.692;2024-01-07T00:02:35;4.60;1.00
27747;DHT22;15138;51.012;4.692;2024-01-07T00:05:04;4.70;1.00
27747;DHT22;15138;51.012;4.692;2024-01-07T00:07:34;4.70;1.00
27747;DHT22;15138;51.012;4.692;2024-01-07T00:10:02;4.60;1.00
27747;DHT22;15138;51.012;4.692;2024-01-07T00:12:31;4.60;1.00
27747;DHT22;15138;51.012;4.692;2024-01-07T00:14:59;4.60;1.00
27747;DHT22;15138;51.012;4.692;2024-01-07T00:17:27;4.60;1.00
27747;DHT22;15138;51.012;4.692;2024-01-07T00:19:56;4.60;1.00
27747;DHT22;15138;51.012;4.692;2024-01-07T00:22:24;4.60;1.00
27747;DHT22;15138;51.012;4.692;2024-01-07T00:24:53;4.60;1.00
27747;DHT22;15138;51.012;4.692;2024-01-07T00:27:22;4.50;1.00
27747;DHT22;15138;51.012;4.692;2024-01-07T00:29:50;4.50;99.90
27747;DHT22;15138;51.012;4.692;2024-01-07T00:32:18;4.40;99.90
27747;DHT22;15138;51.012;4.692;2024-01-07T00:34:46;4.40;99.90
27747;DHT22;15138;51.012;4.692;2024-01-07T00:37:18;4.30;99.90
27747;DHT22;15138;51.012;4.692;2024-01-07T00:39:46;4.30;99.90
27747;DHT22;15138;51.012;4.692;2024-01-07T00:42:16;4.30;99.90
27747;DHT22;15138;51.012;4.692;2024-01-07T00:44:44;4.30;99.90
27747;DHT22;15138;51.012;4.692;2024-01-07T00:47:12;4.30;99.90
27747;DHT22;15138;51.012;4.692;2024-01-07T00:49:40;4.30;99.90
27747;DHT22;15138;51.012;4.692;2024-01-07T00:52:08;4.30;99.90
27747;DHT22;15138;51.012;4.692;2024-01-07T00:54:37;4.30;99.90
27747;DHT22;15138;51.012;4.692;2024-01-07T00:57:05;4.30;99.90
27747;DHT22;15138;51.012;4.692;2024-01-07T00:59:35;4.30;99.90
27747;DHT22;15138;51.012;4.692;2024-01-07T01:02:03;4.30;99.90
27747;DHT22;15138;51.012;4.692;2024-01-07T01:04:32;4.30;99.90
27747;DHT22;15138;51.012;4.692;2024-01-07T01:07:00;4.20;99.90
27747;DHT22;15138;51.012;4.692;2024-01-07T01:09:28;4.20;99.90
27747;DHT22;15138;51.012;4.692;2024-01-07T01:11:56;4.30;99.90
27747;DHT22;15138;51.012;4.692;2024-01-07T01:14:24;4.30;99.90
27747;DHT22;15138;51.012;4.692;2024-01-07T01:16:54;4.30;99.90
27747;DHT22;15138;51.012;4.692;2024-01-07T01:19:23;4.30;99.90
27747;DHT22;15138;51.012;4.692;2024-01-07T01:21:51;4.20;99.90
27747;DHT22;15138;51.012;4.692;2024-01-07T01:24:20;4.30;99.90
27747;DHT22;15138;51.012;4.692;2024-01-07T01:26:48;4.20;99.90
27747;DHT22;15138;51.012;4.692;2024-01-07T01:29:16;4.20;99.90
27747;DHT22;15138;51.012;4.692;2024-01-07T01:31:44;4.20;99.90
27747;DHT22;15138;51.012;4.692;2024-01-07T01:34:14;4.10;99.90
27747;DHT22;15138;51.012;4.692;2024-01-07T01:36:42;4.20;99.90
27747;DHT22;15138;51.012;4.692;2024-01-07T01:39:11;4.20;99.90
27747;DHT22;15138;51.012;4.692;2024-01-07T01:41:39;4.10;99.90
27747;DHT22;15138;51.012;4.692;2024-01-07T01:44:08;4.10;99.90
27747;DHT22;15138;51.012;4.692;2024-01-07T01:46:36;4.10;99.90
27747;DHT22;15138;51.012;4.692;2024-01-07T01:49:04;4.10;99.90
27747;DHT22;15138;51.012;4.692;2024-01-07T01:51:34;4.10;99.90
27747;DHT22;15138;51.012;4.692;2024-01-07T01:54:03;4.00;99.90
27747;DHT22;15138;51.012;4.692;2024-01-07T01:56:32;4.00;99.90
27747;DHT22;15138;51.012;4.692;2024-01-07T01:59:00;4.00;99.90
27747;DHT22;15138;51.012;4.692;2024-01-07T02:01:29;4.10;99.90
27747;DHT22;15138;51.012;4.692;2024-01-07T02:03:58;4.00;99.90
27747;DHT22;15138;51.012;4.692;2024-01-07T02:06:26;4.10;99.90
27747;DHT22;15138;51.012;4.692;2024-01-07T02:08:56;4.10;99.90
27747;DHT22;15138;51.012;4.692;2024-01-07T02:11:24;4.00;99.90
27747;DHT22;15138;51.012;4.692;2024-01-07T02:13:53;4.00;99.90
27747;DHT22;15138;51.012;4.692;2024-01-07T02:16:21;4.00;99.90
27747;DHT22;15138;51.012;4.692;2024-01-07T02:18:50;4.10;99.90
27747;DHT22;15138;51.012;4.692;2024-01-07T02:21:18;4.00;99.90
27747;DHT22;15138;51.012;4.692;2024-01-07T02:23:46;4.00;99.90
27747;DHT22;15138;51.012;4.692;2024-01-07T02:26:16;3.90;99.90
27747;DHT22;15138;51.012;4.692;2024-01-07T02:28:44;3.90;99.90
27747;DHT22;15138;51.012;4.692;2024-01-07T02:31:12;3.90;99.90
27747;DHT22;15138;51.012;4.692;2024-01-07T02:33:40;3.90;99.90
27747;DHT22;15138;51.012;4.692;2024-01-07T02:36:09;4.00;99.90
27747;DHT22;15138;51.012;4.692;2024-01-07T02:38:37;4.10;1.00
27747;DHT22;15138;51.012;4.692;2024-01-07T02:41:05;4.00;1.00
27747;DHT22;15138;51.012;4.692;2024-01-07T02:43:34;4.00;1.00
27747;DHT22;15138;51.012;4.692;2024-01-07T02:46:03;3.90;1.00
27747;DHT22;15138;51.012;4.692;2024-01-07T02:48:31;3.90;1.00
27747;DHT22;15138;51.012;4.692;2024-01-07T02:51:00;3.80;99.90
27747;DHT22;15138;51.012;4.692;2024-01-07T02:53:30;3.80;99.90
27747;DHT22;15138;51.012;4.692;2024-01-07T02:55:58;3.90;1.00
27747;DHT22;15138;51.012;4.692;2024-01-07T02:58:26;3.90;1.00
27747;DHT22;15138;51.012;4.692;2024-01-07T03:00:55;3.80;99.90
27747;DHT22;15138;51.012;4.692;2024-01-07T03:03:24;3.80;99.90
27747;DHT22;15138;51.012;4.692;2024-01-07T03:05:52;3.90;1.00
27747;DHT22;15138;51.012;4.692;2024-01-07T03:08:20;3.80;1.00
27747;DHT22;15138;51.012;4.692;2024-01-07T03:10:49;3.80;1.00
27747;DHT22;15138;51.012;4.692;2024-01-07T03:13:17;3.80;1.00
27747;DHT22;15138;51.012;4.692;2024-01-07T03:15:45;3.70;1.00
27747;DHT22;15138;51.012;4.692;2024-01-07T03:18:14;3.80;1.00
27747;DHT22;15138;51.012;4.692;2024-01-07T03:20:42;3.70;1.00
27747;DHT22;15138;51.012;4.692;2024-01-07T03:23:10;3.70;1.00
27747;DHT22;15138;51.012;4.692;2024-01-07T03:25:38;3.60;1.00
27747;DHT22;15138;51.012;4.692;2024-01-07T03:28:06;3.70;1.00
27747;DHT22;15138;51.012;4.692;2024-01-07T03:30:35;3.70;1.00
27747;DHT22;15138;51.012;4.692;2024-01-07T03:33:03;3.70;1.00
27747;DHT22;15138;51.012;4.692;2024-01-07T03:35:33;3.80;1.00
27747;DHT22;15138;51.012;4.692;2024-01-07T03:38:01;3.80;1.00
27747;DHT22;15138;51.012;4.692;2024-01-07T03:40:30;3.80;1.00
27747;DHT22;15138;51.012;4.692;2024-01-07T03:42:58;3.80;1.00
27747;DHT22;15138;51.012;4.692;2024-01-07T03:45:26;3.80;1.00
27747;DHT22;15138;51.012;4.692;2024-01-07T03:47:54;3.80;1.00
27747;DHT22;15138;51.012;4.692;2024-01-07T03:50:22;3.80;1.00
27747;DHT22;15138;51.012;4.692;2024-01-07T03:52:52;3.80;1.00
27747;DHT22;15138;51.012;4.692;2024-01-07T03:55:20;3.80;1.00
27747;DHT22;15138;51.012;4.692;2024-01-07T03:57:48;3.80;1.00
27747;DHT22;15138;51.012;4.692;2024-01-07T04:00:16;3.80;1.00
27747;DHT22;15138;51.012;4.692;2024-01-07T04:02:44;3.80;1.00
27747;DHT22;15138;51.012;4.692;2024-01-07T04:05:13;3.80;1.00
27747;DHT22;15138;51.012;4.692;2024-01-07T04:07:42;3.80;1.00
27747;DHT22;15138;51.012;4.692;2024-01-07T04:10:11;3.70;1.00
27747;DHT22;15138;51.012;4.692;2024-01-07T04:12:40;3.70;1.00
27747;DHT22;15138;51.012;4.692;2024-01-07T04:15:09;3.80;1.00
27747;DHT22;15138;51.012;4.692;2024-01-07T04:17:37;3.80;1.00
27747;DHT22;15138;51.012;4.692;2024-01-07T04:20:06;3.70;1.00
27747;DHT22;15138;51.012;4.692;2024-01-07T04:22:34;3.80;1.00
27747;DHT22;15138;51.012;4.692;2024-01-07T04:25:03;3.70;1.00
27747;DHT22;15138;51.012;4.692;2024-01-07T04:27:36;3.70;1.00
27747;DHT22;15138;51.012;4.692;2024-01-07T04:30:06;3.70;1.00
27747;DHT22;15138;51.012;4.692;2024-01-07T04:32:34;3.70;1.00
27747;DHT22;15138;51.012;4.692;2024-01-07T04:35:02;3.70;1.00
27747;DHT22;15138;51.012;4.692;2024-01-07T04:37:31;3.60;1.00
27747;DHT22;15138;51.012;4.692;2024-01-07T04:39:59;3.60;1.00
27747;DHT22;15138;51.012;4.692;2024-01-07T04:42:27;3.70;1.00
27747;DHT22;15138;51.012;4.692;2024-01-07T04:44:57;3.70;1.00
27747;DHT22;15138;51.012;4.692;2024-01-07T04:47:29;3.60;1.00
27747;DHT22;15138;51.012;4.692;2024-01-07T04:49:58;3.70;1.00
27747;DHT22;15138;51.012;4.692;2024-01-07T04:52:27;3.70;1.00
27747;DHT22;15138;51.012;4.692;2024-01-07T04:54:55;3.70;1.00
27747;DHT22;15138;51.012;4.692;2024-01-07T04:57:23;3.60;1.00
27747;DHT22;15138;51.012;4.692;2024-01-07T04:59:52;3.60;1.00
27747;DHT22;15138;51.012;4.692;2024-01-07T05:02:22;3.60;1.00
27747;DHT22;15138;51.012;4.692;2024-01-07T05:04:50;3.50;1.00
27747;DHT22;15138;51.012;4.692;2024-01-07T05:07:18;3.70;1.00
27747;DHT22;15138;51.012;4.692;2024-01-07T05:09:46;3.60;1.00
27747;DHT22;15138;51.012;4.692;2024-01-07T05:12:15;3.60;1.00
27747;DHT22;15138;51.012;4.692;2024-01-07T05:14:43;3.60;1.00
27747;DHT22;15138;51.012;4.692;2024-01-07T05:17:13;3.60;1.00
27747;DHT22;15138;51.012;4.692;2024-01-07T05:19:42;3.60;1.00
27747;DHT22;15138;51.012;4.692;2024-01-07T05:22:11;3.60;1.00
27747;DHT22;15138;51.012;4.692;2024-01-07T05:24:39;3.60;1.00
27747;DHT22;15138;51.012;4.692;2024-01-07T05:27:08;3.70;2.70
27747;DHT22;15138;51.012;4.692;2024-01-07T05:29:36;3.60;2.30
27747;DHT22;15138;51.012;4.692;2024-01-07T05:32:05;3.50;1.00
27747;DHT22;15138;51.012;4.692;2024-01-07T05:34:33;3.50;14.70
27747;DHT22;15138;51.012;4.692;2024-01-07T05:37:03;3.60;29.70
27747;DHT22;15138;51.012;4.692;2024-01-07T05:39:32;3.50;43.00
27747;DHT22;15138;51.012;4.692;2024-01-07T05:42:00;3.60;80.30
27747;DHT22;15138;51.012;4.692;2024-01-07T05:44:28;3.60;68.00
27747;DHT22;15138;51.012;4.692;2024-01-07T05:46:56;3.60;90.40
27747;DHT22;15138;51.012;4.692;2024-01-07T05:49:24;3.50;74.60
27747;DHT22;15138;51.012;4.692;2024-01-07T05:51:52;3.40;53.40
27747;DHT22;15138;51.012;4.692;2024-01-07T05:54:22;3.50;76.80
27747;DHT22;15138;51.012;4.692;2024-01-07T05:56:51;3.60;99.90
27747;DHT22;15138;51.012;4.692;2024-01-07T05:59:19;3.50;99.90
27747;DHT22;15138;51.012;4.692;2024-01-07T06:01:47;3.50;99.90
27747;DHT22;15138;51.012;4.692;2024-01-07T06:04:15;3.50;99.90
27747;DHT22;15138;51.012;4.692;2024-01-07T06:06:44;3.50;99.90
27747;DHT22;15138;51.012;4.692;2024-01-07T06:09:14;3.40;99.90
27747;DHT22;15138;51.012;4.692;2024-01-07T06:11:44;3.50;99.90
27747;DHT22;15138;51.012;4.692;2024-01-07T06:14:12;3.40;99.90
27747;DHT22;15138;51.012;4.692;2024-01-07T06:16:40;3.50;99.90
27747;DHT22;15138;51.012;4.692;2024-01-07T06:19:09;3.50;99.90
27747;DHT22;15138;51.012;4.692;2024-01-07T06:21:37;3.40;99.90
27747;DHT22;15138;51.012;4.692;2024-01-07T06:24:07;3.40;99.90
27747;DHT22;15138;51.012;4.692;2024-01-07T06:26:35;3.40;99.90
27747;DHT22;15138;51.012;4.692;2024-01-07T06:29:05;3.40;1.00
27747;DHT22;15138;51.012;4.692;2024-01-07T06:31:33;3.60;1.00
27747;DHT22;15138;51.012;4.692;2024-01-07T06:34:02;3.50;1.00
27747;DHT22;15138;51.012;4.692;2024-01-07T06:44:00;3.50;1.00
27747;DHT22;15138;51.012;4.692;2024-01-07T06:46:29;3.50;1.00
27747;DHT22;15138;51.012;4.692;2024-01-07T06:48:58;3.50;1.00
27747;DHT22;15138;51.012;4.692;2024-01-07T06:51:26;3.60;1.00
27747;DHT22;15138;51.012;4.692;2024-01-07T06:53:54;3.50;1.00
27747;DHT22;15138;51.012;4.692;2024-01-07T06:56:22;3.40;1.00
27747;DHT22;15138;51.012;4.692;2024-01-07T06:58:51;3.50;1.00
27747;DHT22;15138;51.012;4.692;2024-01-07T07:01:20;3.50;1.00
27747;DHT22;15138;51.012;4.692;2024-01-07T07:03:51;3.60;1.00
27747;DHT22;15138;51.012;4.692;2024-01-07T07:06:20;3.50;1.00
27747;DHT22;15138;51.012;4.692;2024-01-07T07:08:48;3.60;1.00
27747;DHT22;15138;51.012;4.692;2024-01-07T07:11:16;3.60;1.00
27747;DHT22;15138;51.012;4.692;2024-01-07T07:13:44;3.40;1.00
27747;DHT22;15138;51.012;4.692;2024-01-07T07:16:13;3.40;1.00
27747;DHT22;15138;51.012;4.692;2024-01-07T07:18:41;3.50;1.00
27747;DHT22;15138;51.012;4.692;2024-01-07T07:21:10;3.40;1.00
27747;DHT22;15138;51.012;4.692;2024-01-07T07:23:39;3.40;1.00
27747;DHT22;15138;51.012;4.692;2024-01-07T07:26:07;3.40;1.00
27747;DHT22;15138;51.012;4.692;2024-01-07T07:28:35;3.40;1.00
27747;DHT22;15138;51.012;4.692;2024-01-07T07:31:03;3.30;1.00
27747;DHT22;15138;51.012;4.692;2024-01-07T07:33:32;3.40;1.00
27747;DHT22;15138;51.012;4.692;2024-01-07T07:36:00;3.50;99.90
27747;DHT22;15138;51.012;4.692;2024-01-07T07:38:30;3.40;1.00
27747;DHT22;15138;51.012;4.692;2024-01-07T07:40:59;3.40;99.90
27747;DHT22;15138;51.012;4.692;2024-01-07T07:43:27;3.30;99.90
27747;DHT22;15138;51.012;4.692;2024-01-07T07:45:56;3.40;99.90
27747;DHT22;15138;51.012;4.692;2024-01-07T07:48:24;3.40;99.90
27747;DHT22;15138;51.012;4.692;2024-01-07T07:50:53;3.40;99.90
27747;DHT22;15138;51.012;4.692;2024-01-07T07:53:21;3.40;99.90
27747;DHT22;15138;51.012;4.692;2024-01-07T07:55:50;3.30;99.90
27747;DHT22;15138;51.012;4.692;2024-01-07T07:58:18;3.40;99.90
27747;DHT22;15138;51.012;4.692;2024-01-07T08:00:47;3.30;99.90
27747;DHT22;15138;51.012;4.692;2024-01-07T08:03:15;3.30;99.90
27747;DHT22;15138;51.012;4.692;2024-01-07T08:05:43;3.30;99.90
27747;DHT22;15138;51.012;4.692;2024-01-07T08:08:12;3.20;99.90
27747;DHT22;15138;51.012;4.692;2024-01-07T08:10:40;3.20;99.90
27747;DHT22;15138;51.012;4.692;2024-01-07T08:13:09;3.30;99.90
27747;DHT22;15138;51.012;4.692;2024-01-07T08:15:38;3.30;99.90
27747;DHT22;15138;51.012;4.692;2024-01-07T08:18:06;3.30;99.90
27747;DHT22;15138;51.012;4.692;2024-01-07T08:20:34;3.40;99.90
27747;DHT22;15138;51.012;4.692;2024-01-07T08:23:03;3.40;99.90
27747;DHT22;15138;51.012;4.692;2024-01-07T08:28:01;3.30;99.90
27747;DHT22;15138;51.012;4.692;2024-01-07T08:30:30;3.20;99.90
27747;DHT22;15138;51.012;4.692;2024-01-07T08:32:59;3.10;99.90
27747;DHT22;15138;51.012;4.692;2024-01-07T08:35:27;3.30;99.90
27747;DHT22;15138;51.012;4.692;2024-01-07T08:37:55;3.30;99.90
27747;DHT22;15138;51.012;4.692;2024-01-07T08:40:24;3.40;99.90
27747;DHT22;15138;51.012;4.692;2024-01-07T08:42:52;3.30;99.90
27747;DHT22;15138;51.012;4.692;2024-01-07T08:45:20;3.20;99.90
27747;DHT22;15138;51.012;4.692;2024-01-07T08:47:50;3.30;99.90
27747;DHT22;15138;51.012;4.692;2024-01-07T08:50:18;3.30;99.90
27747;DHT22;15138;51.012;4.692;2024-01-07T08:52:47;3.40;99.90
27747;DHT22;15138;51.012;4.692;2024-01-07T08:55:15;3.30;99.90
27747;DHT22;15138;51.012;4.692;2024-01-07T08:57:44;3.30;99.90
27747;DHT22;15138;51.012;4.692;2024-01-07T09:00:16;3.20;99.90
27747;DHT22;15138;51.012;4.692;2024-01-07T09:02:45;3.30;99.90
27747;DHT22;15138;51.012;4.692;2024-01-07T09:05:15;3.20;99.90
27747;DHT22;15138;51.012;4.692;2024-01-07T09:07:43;3.30;99.90
27747;DHT22;15138;51.012;4.692;2024-01-07T09:10:11;3.30;99.90
27747;DHT22;15138;51.012;4.692;2024-01-07T09:12:40;3.20;99.90
27747;DHT22;15138;51.012;4.692;2024-01-07T09:15:09;3.20;99.90
27747;DHT22;15138;51.012;4.692;2024-01-07T09:17:37;3.20;99.90
27747;DHT22;15138;51.012;4.692;2024-01-07T09:20:08;3.20;99.90
27747;DHT22;15138;51.012;4.692;2024-01-07T09:22:37;3.20;99.90
27747;DHT22;15138;51.012;4.692;2024-01-07T09:25:06;3.20;99.90
27747;DHT22;15138;51.012;4.692;2024-01-07T09:27:35;3.20;99.90
27747;DHT22;15138;51.012;4.692;2024-01-07T09:30:03;3.20;99.90
27747;DHT22;15138;51.012;4.692;2024-01-07T09:32:32;3.20;99.90
27747;DHT22;15138;51.012;4.692;2024-01-07T09:35:04;3.10;99.90
27747;DHT22;15138;51.012;4.692;2024-01-07T09:37:33;3.20;99.90
27747;DHT22;15138;51.012;4.692;2024-01-07T09:40:05;3.20;99.90
27747;DHT22;15138;51.012;4.692;2024-01-07T09:42:34;3.20;99.90
27747;DHT22;15138;51.012;4.692;2024-01-07T09:45:03;3.20;99.90
27747;DHT22;15138;51.012;4.692;2024-01-07T09:47:32;3.20;99.90
27747;DHT22;15138;51.012;4.692;2024-01-07T09:50:00;3.20;99.90
27747;DHT22;15138;51.012;4.692;2024-01-07T09:52:28;3.20;99.90
27747;DHT22;15138;51.012;4.692;2024-01-07T09:54:59;3.20;99.90
27747;DHT22;15138;51.012;4.692;2024-01-07T09:57:28;3.20;99.90
27747;DHT22;15138;51.012;4.692;2024-01-07T09:59:57;3.10;99.90
27747;DHT22;15138;51.012;4.692;2024-01-07T10:02:26;3.20;99.90
27747;DHT22;15138;51.012;4.692;2024-01-07T10:04:54;3.20;99.90
27747;DHT22;15138;51.012;4.692;2024-01-07T10:07:22;3.30;99.90
27747;DHT22;15138;51.012;4.692;2024-01-07T10:09:52;3.20;99.90
27747;DHT22;15138;51.012;4.692;2024-01-07T10:12:23;3.20;99.90
27747;DHT22;15138;51.012;4.692;2024-01-07T10:14:52;3.20;99.90
27747;DHT22;15138;51.012;4.692;2024-01-07T10:17:20;3.30;99.90
27747;DHT22;15138;51.012;4.692;2024-01-07T10:19:54;3.20;99.90
27747;DHT22;15138;51.012;4.692;2024-01-07T10:22:22;3.20;99.90
27747;DHT22;15138;51.012;4.692;2024-01-07T10:24:51;3.30;99.90
27747;DHT22;15138;51.012;4.692;2024-01-07T10:27:22;3.20;99.90
27747;DHT22;15138;51.012;4.692;2024-01-07T10:29:52;3.20;99.90
27747;DHT22;15138;51.012;4.692;2024-01-07T10:32:22;3.30;99.90
27747;DHT22;15138;51.012;4.692;2024-01-07T10:34:52;3.30;99.90
27747;DHT22;15138;51.012;4.692;2024-01-07T10:47:19;3.20;99.90
27747;DHT22;15138;51.012;4.692;2024-01-07T10:52:21;2.90;1.00
27747;DHT22;15138;51.012;4.692;2024-01-07T10:54:50;3.00;1.00
27747;DHT22;15138;51.012;4.692;2024-01-07T10:57:24;3.00;1.00
27747;DHT22;15138;51.012;4.692;2024-01-07T10:59:55;2.90;1.00
27747;DHT22;15138;51.012;4.692;2024-01-07T11:02:25;3.00;1.00
27747;DHT22;15138;51.012;4.692;2024-01-07T11:05:00;2.90;1.00
27747;DHT22;15138;51.012;4.692;2024-01-07T11:07:38;3.00;1.00
27747;DHT22;15138;51.012;4.692;2024-01-07T11:22:47;3.20;1.00
27747;DHT22;15138;51.012;4.692;2024-01-07T11:25:29;3.30;1.00
27747;DHT22;15138;51.012;4.692;2024-01-07T11:27:58;3.30;1.00
27747;DHT22;15138;51.012;4.692;2024-01-07T11:30:26;3.20;1.00
27747;DHT22;15138;51.012;4.692;2024-01-07T11:32:59;3.20;1.00
27747;DHT22;15138;51.012;4.692;2024-01-07T11:35:56;3.20;1.00
27747;DHT22;15138;51.012;4.692;2024-01-07T11:38:25;3.20;1.00
27747;DHT22;15138;51.012;4.692;2024-01-07T11:40:54;3.20;1.00
27747;DHT22;15138;51.012;4.692;2024-01-07T11:43:23;3.20;1.00
27747;DHT22;15138;51.012;4.692;2024-01-07T11:45:51;3.10;1.00
27747;DHT22;15138;51.012;4.692;2024-01-07T11:48:22;3.20;1.00
27747;DHT22;15138;51.012;4.692;2024-01-07T11:50:51;3.20;1.00
27747;DHT22;15138;51.012;4.692;2024-01-07T11:53:22;3.20;1.00
27747;DHT22;15138;51.012;4.692;2024-01-07T11:55:50;3.20;1.00
27747;DHT22;15138;51.012;4.692;2024-01-07T11:58:19;3.20;1.00
27747;DHT22;15138;51.012;4.692;2024-01-07T12:00:47;3.10;1.00
27747;DHT22;15138;51.012;4.692;2024-01-07T12:03:17;3.00;1.00
27747;DHT22;15138;51.012;4.692;2024-01-07T12:05:46;3.10;1.00
27747;DHT22;15138;51.012;4.692;2024-01-07T12:08:15;3.10;1.00
27747;DHT22;15138;51.012;4.692;2024-01-07T12:10:44;3.10;1.00
27747;DHT22;15138;51.012;4.692;2024-01-07T12:13:13;3.10;1.00
27747;DHT22;15138;51.012;4.692;2024-01-07T12:15:43;3.10;1.00
27747;DHT22;15138;51.012;4.692;2024-01-07T12:18:11;3.00;1.00
27747;DHT22;15138;51.012;4.692;2024-01-07T12:20:39;3.00;1.00
27747;DHT22;15138;51.012;4.692;2024-01-07T12:23:09;3.10;1.00
27747;DHT22;15138;51.012;4.692;2024-01-07T12:25:38;3.20;1.00
27747;DHT22;15138;51.012;4.692;2024-01-07T12:28:07;3.00;1.00
27747;DHT22;15138;51.012;4.692;2024-01-07T12:30:36;3.10;1.00
27747;DHT22;15138;51.012;4.692;2024-01-07T12:33:05;3.00;1.00
27747;DHT22;15138;51.012;4.692;2024-01-07T12:35:34;3.00;1.00
27747;DHT22;15138;51.012;4.692;2024-01-07T12:38:04;3.10;1.00
27747;DHT22;15138;51.012;4.692;2024-01-07T12:40:34;3.00;1.00
27747;DHT22;15138;51.012;4.692;2024-01-07T12:43:03;3.00;1.00
27747;DHT22;15138;51.012;4.692;2024-01-07T12:45:33;2.90;1.00
27747;DHT22;15138;51.012;4.692;2024-01-07T12:48:02;2.90;1.00
27747;DHT22;15138;51.012;4.692;2024-01-07T12:50:30;3.00;1.00
27747;DHT22;15138;51.012;4.692;2024-01-07T12:52:59;3.00;1.00
27747;DHT22;15138;51.012;4.692;2024-01-07T12:55:27;3.00;1.00
27747;DHT22;15138;51.012;4.692;2024-01-07T12:57:57;2.90;1.00
27747;DHT22;15138;51.012;4.692;2024-01-07T13:00:26;2.90;1.00
27747;DHT22;15138;51.012;4.692;2024-01-07T13:02:55;2.90;99.90
27747;DHT22;15138;51.012;4.692;2024-01-07T13:05:27;3.00;99.90
27747;DHT22;15138;51.012;4.692;2024-01-07T13:10:26;3.00;1.00
27747;DHT22;15138;51.012;4.692;2024-01-07T13:12:54;2.90;99.90
27747;DHT22;15138;51.012;4.692;2024-01-07T13:15:35;2.90;99.90
27747;DHT22;15138;51.012;4.692;2024-01-07T13:18:03;2.90;99.90
27747;DHT22;15138;51.012;4.692;2024-01-07T13:20:32;2.90;99.90
27747;DHT22;15138;51.012;4.692;2024-01-07T13:23:02;2.90;99.90
27747;DHT22;15138;51.012;4.692;2024-01-07T13:25:31;3.00;99.90
27747;DHT22;15138;51.012;4.692;2024-01-07T13:27:59;3.00;99.90
27747;DHT22;15138;51.012;4.692;2024-01-07T13:30:27;2.80;99.90
27747;DHT22;15138;51.012;4.692;2024-01-07T13:32:57;2.80;99.90
27747;DHT22;15138;51.012;4.692;2024-01-07T13:35:28;2.80;99.90
27747;DHT22;15138;51.012;4.692;2024-01-07T13:37:57;2.90;99.90
27747;DHT22;15138;51.012;4.692;2024-01-07T13:40:25;2.90;99.90
27747;DHT22;15138;51.012;4.692;2024-01-07T13:42:54;2.90;99.90
27747;DHT22;15138;51.012;4.692;2024-01-07T13:45:22;2.90;99.90
27747;DHT22;15138;51.012;4.692;2024-01-07T13:47:50;2.90;99.90
27747;DHT22;15138;51.012;4.692;2024-01-07T13:50:20;2.90;99.90
27747;DHT22;15138;51.012;4.692;2024-01-07T13:52:48;3.00;99.90
27747;DHT22;15138;51.012;4.692;2024-01-07T13:55:17;3.00;99.90
27747;DHT22;15138;51.012;4.692;2024-01-07T13:57:45;3.00;99.90
27747;DHT22;15138;51.012;4.692;2024-01-07T14:00:14;2.90;99.90
27747;DHT22;15138;51.012;4.692;2024-01-07T14:02:46;2.80;99.90
27747;DHT22;15138;51.012;4.692;2024-01-07T14:05:14;2.80;99.90
27747;DHT22;15138;51.012;4.692;2024-01-07T14:07:47;2.80;99.90
27747;DHT22;15138;51.012;4.692;2024-01-07T14:10:16;2.80;99.90
27747;DHT22;15138;51.012;4.692;2024-01-07T14:12:46;2.90;99.90
27747;DHT22;15138;51.012;4.692;2024-01-07T14:15:15;2.80;99.90
27747;DHT22;15138;51.012;4.692;2024-01-07T14:17:45;2.80;99.90
27747;DHT22;15138;51.012;4.692;2024-01-07T14:20:14;2.80;99.90
27747;DHT22;15138;51.012;4.692;2024-01-07T14:22:42;2.80;99.90
27747;DHT22;15138;51.012;4.692;2024-01-07T14:25:11;2.90;99.90
27747;DHT22;15138;51.012;4.692;2024-01-07T14:27:41;2.90;99.90
27747;DHT22;15138;51.012;4.692;2024-01-07T14:30:11;2.80;99.90
27747;DHT22;15138;51.012;4.692;2024-01-07T14:32:40;2.90;99.90
27747;DHT22;15138;51.012;4.692;2024-01-07T14:35:09;2.90;99.90
27747;DHT22;15138;51.012;4.692;2024-01-07T14:37:37;2.80;99.90
27747;DHT22;15138;51.012;4.692;2024-01-07T14:40:07;2.90;99.90
27747;DHT22;15138;51.012;4.692;2024-01-07T14:42:37;2.90;99.90
27747;DHT22;15138;51.012;4.692;2024-01-07T14:45:06;2.90;99.90
27747;DHT22;15138;51.012;4.692;2024-01-07T14:47:35;2.80;99.90
27747;DHT22;15138;51.012;4.692;2024-01-07T14:50:04;2.90;99.90
27747;DHT22;15138;51.012;4.692;2024-01-07T14:52:34;2.80;99.90
27747;DHT22;15138;51.012;4.692;2024-01-07T14:55:03;2.80;99.90
27747;DHT22;15138;51.012;4.692;2024-01-07T14:57:31;2.70;99.90
27747;DHT22;15138;51.012;4.692;2024-01-07T15:00:00;2.70;99.90
27747;DHT22;15138;51.012;4.692;2024-01-07T15:02:29;2.70;99.90
27747;DHT22;15138;51.012;4.692;2024-01-07T15:04:57;2.60;99.90
27747;DHT22;15138;51.012;4.692;2024-01-07T15:07:26;2.50;93.60
27747;DHT22;15138;51.012;4.692;2024-01-07T15:09:54;2.60;94.40
27747;DHT22;15138;51.012;4.692;2024-01-07T15:12:23;2.50;47.80
27747;DHT22;15138;51.012;4.692;2024-01-07T15:14:51;2.50;28.60
27747;DHT22;15138;51.012;4.692;2024-01-07T15:17:21;2.60;45.80
27747;DHT22;15138;51.012;4.692;2024-01-07T15:19:49;2.60;39.00
27747;DHT22;15138;51.012;4.692;2024-01-07T15:22:18;2.50;18.80
27747;DHT22;15138;51.012;4.692;2024-01-07T15:24:46;2.60;19.30
27747;DHT22;15138;51.012;4.692;2024-01-07T15:27:14;2.60;19.80
27747;DHT22;15138;51.012;4.692;2024-01-07T15:29:42;2.60;25.00
27747;DHT22;15138;51.012;4.692;2024-01-07T15:32:11;2.50;4.60
27747;DHT22;15138;51.012;4.692;2024-01-07T15:34:40;2.50;6.50
27747;DHT22;15138;51.012;4.692;2024-01-07T15:37:09;2.60;11.60
27747;DHT22;15138;51.012;4.692;2024-01-07T15:39:37;2.70;15.90
27747;DHT22;15138;51.012;4.692;2024-01-07T15:42:05;2.70;15.80
27747;DHT22;15138;51.012;4.692;2024-01-07T15:44:34;2.60;17.30
27747;DHT22;15138;51.012;4.692;2024-01-07T15:47:02;2.70;27.00
27747;DHT22;15138;51.012;4.692;2024-01-07T15:49:30;2.60;4.10
27747;DHT22;15138;51.012;4.692;2024-01-07T15:52:00;2.50;1.00
27747;DHT22;15138;51.012;4.692;2024-01-07T15:54:29;2.40;1.00
27747;DHT22;15138;51.012;4.692;2024-01-07T15:56:57;2.40;1.00
27747;DHT22;15138;51.012;4.692;2024-01-07T15:59:25;2.30;1.00
27747;DHT22;15138;51.012;4.692;2024-01-07T16:01:54;2.30;1.00
27747;DHT22;15138;51.012;4.692;2024-01-07T16:04:23;2.30;1.00
27747;DHT22;15138;51.012;4.692;2024-01-07T16:06:51;2.30;1.00
27747;DHT22;15138;51.012;4.692;2024-01-07T16:09:20;2.10;1.00
27747;DHT22;15138;51.012;4.692;2024-01-07T16:11:49;2.00;1.00
27747;DHT22;15138;51.012;4.692;2024-01-07T16:14:18;2.00;1.00
27747;DHT22;15138;51.012;4.692;2024-01-07T16:16:52;2.00;1.00
27747;DHT22;15138;51.012;4.692;2024-01-07T16:19:20;2.00;1.00
27747;DHT22;15138;51.012;4.692;2024-01-07T16:21:48;1.90;1.00
27747;DHT22;15138;51.012;4.692;2024-01-07T16:24:16;2.00;1.00
27747;DHT22;15138;51.012;4.692;2024-01-07T16:26:46;2.00;1.00
27747;DHT22;15138;51.012;4.692;2024-01-07T16:29:14;1.90;1.00
27747;DHT22;15138;51.012;4.692;2024-01-07T16:31:44;1.70;1.00
27747;DHT22;15138;51.012;4.692;2024-01-07T16:34:12;1.80;1.00
27747;DHT22;15138;51.012;4.692;2024-01-07T16:36:41;1.90;1.00
27747;DHT22;15138;51.012;4.692;2024-01-07T16:39:09;1.70;1.00